PWSweather.com
Personal Weather Stations
Station Observations
MAKAWAOWX1
Up Country Maui, Makawao, HI 96768

Up Country MauiMakawao, HI 96768

Lat: 20.856944, Lon: -156.3149667

Elevation: 1500

Station Type: Davis Vantage Pro

Latest ConditionsUpdated 3:20:02 AM HST Saturday, Mar 25, 2017
Currently Today's Max Today's Min Today's Average
Temperature 59.0°F15.0°C 63.1°F17.3°C 59.0°F15.0°C 60.6°F15.9°C
Dew Point 56.7°F13.7°C 59.5°F15.3°C 56.7°F13.7°C 58.0°F14.4°C
Winds Calm Calm Calm ECalm E - Calm Calm
Wind Gusts -- -- - -
Humidity 92% 93% 87% 91%
Pressure 30.09 in1019.0 mb 30.12 in1020.0 mb 30.09 in1019.0 mb -
Hour Temp Dew Point Humidity Winds Wind Gusts Pressure Precip Precip Rate Daily Precip Total
03:20 AM 59.0°F15.0°C 56.7°F13.7°C 92% Calm Calm -- 30.09 in1019.0 mb - 0.00 in0.0 mm 0.00 in0.0 mm
03:10 AM 59.4°F15.2°C 57.1°F13.9°C 92% Calm Calm -- 30.09 in1019.0 mb - 0.00 in0.0 mm 0.00 in0.0 mm
03:00 AM 59.6°F15.3°C 57.3°F14.1°C 92% Calm Calm -- 30.09 in1019.0 mb - 0.00 in0.0 mm 0.00 in0.0 mm
02:50 AM 59.8°F15.4°C 57.5°F14.2°C 92% Calm Calm -- 30.09 in1019.0 mb - 0.00 in0.0 mm 0.00 in0.0 mm
02:40 AM 60.1°F15.6°C 57.8°F14.3°C 92% Calm Calm -- 30.09 in1019.0 mb - 0.00 in0.0 mm 0.00 in0.0 mm
02:30 AM 60.4°F15.8°C 58.4°F14.7°C 93% Calm Calm -- 30.09 in1019.0 mb - 0.00 in0.0 mm 0.00 in0.0 mm
02:20 AM 59.5°F15.3°C 57.5°F14.2°C 93% Calm Calm -- 30.10 in1019.3 mb - 0.00 in0.0 mm 0.00 in0.0 mm
02:10 AM 59.4°F15.2°C 57.4°F14.1°C 93% Calm Calm -- 30.10 in1019.3 mb - 0.00 in0.0 mm 0.00 in0.0 mm
02:00 AM 59.6°F15.3°C 57.3°F14.1°C 92% Calm Calm -- 30.10 in1019.3 mb - 0.00 in0.0 mm 0.00 in0.0 mm
01:50 AM 59.9°F15.5°C 57.6°F14.2°C 92% Calm Calm -- 30.11 in1019.6 mb - 0.00 in0.0 mm 0.00 in0.0 mm
01:40 AM 60.2°F15.7°C 57.8°F14.3°C 92% Calm Calm -- 30.11 in1019.6 mb - 0.00 in0.0 mm 0.00 in0.0 mm
01:30 AM 60.4°F15.8°C 58.1°F14.5°C 92% Calm Calm -- 30.11 in1019.6 mb - 0.00 in0.0 mm 0.00 in0.0 mm
01:20 AM 60.7°F15.9°C 58.1°F14.5°C 91% Calm Calm -- 30.12 in1020.0 mb - 0.00 in0.0 mm 0.00 in0.0 mm
01:10 AM 60.9°F16.1°C 58.6°F14.8°C 92% Calm Calm -- 30.12 in1020.0 mb - 0.00 in0.0 mm 0.00 in0.0 mm
01:00 AM 60.9°F16.1°C 58.3°F14.6°C 91% Calm Calm -- 30.12 in1020.0 mb - 0.00 in0.0 mm 0.00 in0.0 mm
12:50 AM 61.0°F16.1°C 58.1°F14.5°C 90% Calm Calm -- 30.11 in1019.6 mb - 0.00 in0.0 mm 0.00 in0.0 mm
12:40 AM 61.5°F16.4°C 57.9°F14.4°C 88% Calm Calm -- 30.12 in1020.0 mb - 0.00 in0.0 mm 0.00 in0.0 mm
12:30 AM 62.1°F16.7°C 58.2°F14.6°C 87% Calm Calm -- 30.11 in1019.6 mb - 0.00 in0.0 mm 0.00 in0.0 mm
12:20 AM 62.6°F17.0°C 58.7°F14.8°C 87% Calm Calm -- 30.12 in1020.0 mb - 0.00 in0.0 mm 0.00 in0.0 mm
12:10 AM 62.9°F17.2°C 59.3°F15.2°C 88% Calm Calm -- 30.12 in1020.0 mb - 0.00 in0.0 mm 0.00 in0.0 mm
12:00 AM 63.1°F17.3°C 59.5°F15.3°C 88% Calm Calm -- 30.12 in1020.0 mb - 0.00 in0.0 mm 0.00 in0.0 mm